createdAt,value
2023-06-29T00:02:18.013Z,2.38
2023-06-29T00:04:52.744Z,2.60
2023-06-29T00:07:27.355Z,1.92
2023-06-29T00:10:02.281Z,2.05
2023-06-29T00:12:36.294Z,2.40
2023-06-29T00:15:14.808Z,3.10
2023-06-29T00:17:49.379Z,2.55
2023-06-29T00:20:30.076Z,2.33
2023-06-29T00:23:04.213Z,2.47
2023-06-29T00:25:40.466Z,2.58
2023-06-29T00:28:14.411Z,3.15
2023-06-29T00:30:50.304Z,2.10
2023-06-29T00:33:27.044Z,2.65
2023-06-29T00:36:02.235Z,2.40
2023-06-29T00:38:39.282Z,2.80
2023-06-29T00:41:14.558Z,2.33
2023-06-29T00:43:48.797Z,2.63
2023-06-29T00:46:24.704Z,2.40
2023-06-29T00:48:58.566Z,2.78
2023-06-29T00:51:33.421Z,2.72
2023-06-29T00:54:07.743Z,2.97
2023-06-29T00:56:43.484Z,2.88
2023-06-29T00:59:19.126Z,2.65
2023-06-29T01:01:55.085Z,2.72
2023-06-29T01:04:30.042Z,3.10
2023-06-29T01:07:18.682Z,2.30
2023-06-29T01:09:56.384Z,2.47
2023-06-29T01:12:30.674Z,2.60
2023-06-29T01:15:07.080Z,2.60
2023-06-29T01:17:47.005Z,2.70
2023-06-29T01:20:23.338Z,3.20
2023-06-29T01:23:01.759Z,2.47
2023-06-29T01:25:38.347Z,2.53
2023-06-29T01:28:17.564Z,2.83
2023-06-29T01:30:51.748Z,2.33
2023-06-29T01:33:27.708Z,2.55
2023-06-29T01:36:10.707Z,3.10
2023-06-29T01:38:54.616Z,2.55
2023-06-29T01:41:37.610Z,2.38
2023-06-29T01:44:20.208Z,2.55
2023-06-29T01:46:55.788Z,3.08
2023-06-29T01:49:30.648Z,2.60
2023-06-29T01:52:06.569Z,2.60
2023-06-29T01:54:41.430Z,2.60
2023-06-29T01:57:17.455Z,3.08
2023-06-29T01:59:51.862Z,2.50
2023-06-29T02:02:26.458Z,2.88
2023-06-29T02:05:00.538Z,2.50
2023-06-29T02:07:34.745Z,3.20
2023-06-29T02:10:12.329Z,2.28
2023-06-29T02:12:47.978Z,2.45
2023-06-29T02:15:23.309Z,2.92
2023-06-29T02:17:57.175Z,3.05
2023-06-29T02:20:34.045Z,3.00
2023-06-29T02:23:09.648Z,2.90
2023-06-29T02:25:46.121Z,2.70
2023-06-29T02:28:22.569Z,2.90
2023-06-29T02:30:56.951Z,2.80
2023-06-29T02:33:31.021Z,3.20
2023-06-29T02:36:05.288Z,2.47
2023-06-29T02:38:40.654Z,3.20
2023-06-29T02:41:14.565Z,2.95
2023-06-29T02:43:50.087Z,3.08
2023-06-29T02:46:24.361Z,2.40
2023-06-29T02:48:58.585Z,3.10
2023-06-29T02:51:32.804Z,2.60
2023-06-29T02:54:06.663Z,2.58
2023-06-29T02:56:40.953Z,2.95
2023-06-29T02:59:16.450Z,2.50
2023-06-29T03:01:50.203Z,2.45
2023-06-29T03:04:24.078Z,2.53
2023-06-29T03:06:58.303Z,2.35
2023-06-29T03:09:32.745Z,2.40
2023-06-29T03:12:08.045Z,2.40
2023-06-29T03:14:43.576Z,2.50
2023-06-29T03:17:19.660Z,2.22
2023-06-29T03:19:53.970Z,2.33
2023-06-29T03:22:28.304Z,2.20
2023-06-29T03:25:02.083Z,2.35
2023-06-29T03:27:38.825Z,2.40
2023-06-29T03:30:17.674Z,2.38
2023-06-29T03:32:52.271Z,2.58
2023-06-29T03:35:26.469Z,2.63
2023-06-29T03:38:00.569Z,2.65
2023-06-29T03:40:35.342Z,2.45
2023-06-29T03:43:11.138Z,2.72
2023-06-29T03:45:46.766Z,2.60
2023-06-29T03:48:28.730Z,2.22
2023-06-29T03:51:03.695Z,2.20
2023-06-29T03:53:37.699Z,2.30
2023-06-29T03:56:11.728Z,2.33
2023-06-29T03:58:45.758Z,2.70
2023-06-29T04:01:21.162Z,2.88
2023-06-29T04:03:56.616Z,3.00
2023-06-29T04:06:30.366Z,3.10
2023-06-29T04:09:05.163Z,2.70
2023-06-29T04:11:39.763Z,2.50
2023-06-29T04:14:14.303Z,2.83
2023-06-29T04:16:51.562Z,2.55
2023-06-29T04:19:26.266Z,2.58
2023-06-29T04:22:01.521Z,2.70
2023-06-29T04:24:35.348Z,2.38
2023-06-29T04:27:09.419Z,2.50
2023-06-29T04:29:44.549Z,2.42
2023-06-29T04:32:19.467Z,2.83
2023-06-29T04:34:53.465Z,2.85
2023-06-29T04:37:27.439Z,2.35
2023-06-29T04:40:02.094Z,2.00
2023-06-29T04:42:45.315Z,2.58
2023-06-29T04:45:20.957Z,2.72
2023-06-29T04:47:59.533Z,2.50
2023-06-29T04:50:39.631Z,3.00
2023-06-29T04:53:13.983Z,2.60
2023-06-29T04:55:47.838Z,3.00
2023-06-29T04:58:22.186Z,3.47
2023-06-29T05:00:56.690Z,3.22
2023-06-29T05:03:33.688Z,3.40
2023-06-29T05:06:07.898Z,3.50
2023-06-29T05:08:42.385Z,3.40
2023-06-29T05:11:17.588Z,3.30
2023-06-29T05:13:51.139Z,3.63
2023-06-29T05:16:24.935Z,3.53
2023-06-29T05:19:01.754Z,3.58
2023-06-29T05:21:36.254Z,3.85
2023-06-29T05:24:11.252Z,3.90
2023-06-29T05:26:47.544Z,4.03
2023-06-29T05:29:22.191Z,4.30
2023-06-29T05:31:56.600Z,4.70
2023-06-29T05:34:32.275Z,4.57
2023-06-29T05:37:07.167Z,4.05
2023-06-29T05:39:41.200Z,4.43
2023-06-29T05:42:15.169Z,4.30
2023-06-29T05:44:52.414Z,4.30
2023-06-29T05:47:26.522Z,4.80
2023-06-29T05:50:02.044Z,4.32
2023-06-29T05:52:37.060Z,4.10
2023-06-29T05:55:13.625Z,4.20
2023-06-29T05:57:47.938Z,4.05
2023-06-29T06:00:22.197Z,4.13
2023-06-29T06:02:57.038Z,4.28
2023-06-29T06:05:34.181Z,4.32
2023-06-29T06:08:07.945Z,4.05
2023-06-29T06:10:44.615Z,4.00
2023-06-29T06:13:20.241Z,3.75
2023-06-29T06:15:55.802Z,3.65
2023-06-29T06:18:29.787Z,3.80
2023-06-29T06:21:08.466Z,3.85
2023-06-29T06:23:42.653Z,4.03
2023-06-29T06:26:16.473Z,3.65
2023-06-29T06:28:53.180Z,3.65
2023-06-29T06:31:34.217Z,3.80
2023-06-29T06:34:09.746Z,3.80
2023-06-29T06:36:49.692Z,3.50
2023-06-29T06:39:24.206Z,3.17
2023-06-29T06:41:59.155Z,2.80
2023-06-29T06:44:35.192Z,3.90
2023-06-29T06:47:10.308Z,3.58
2023-06-29T06:49:48.125Z,3.35
2023-06-29T06:52:23.526Z,3.45
2023-06-29T06:54:58.431Z,3.50
2023-06-29T06:57:34.424Z,3.05
2023-06-29T07:00:14.083Z,3.70
2023-06-29T07:02:49.345Z,3.00
2023-06-29T07:05:24.584Z,3.65
2023-06-29T07:08:00.716Z,3.17
2023-06-29T07:10:34.922Z,2.83
2023-06-29T07:13:09.272Z,3.28
2023-06-29T07:15:43.615Z,3.13
2023-06-29T07:18:17.588Z,3.10
2023-06-29T07:26:06.645Z,2.88
2023-06-29T07:28:40.553Z,3.10
2023-06-29T07:31:16.275Z,2.80
2023-06-29T07:33:54.802Z,2.85
2023-06-29T07:36:30.988Z,2.80
2023-06-29T07:39:13.751Z,3.15
2023-06-29T07:42:01.556Z,2.90
2023-06-29T07:44:36.564Z,2.80
2023-06-29T07:47:13.384Z,2.80
2023-06-29T07:49:54.474Z,2.45
2023-06-29T07:52:32.339Z,3.03
2023-06-29T07:55:09.619Z,2.72
2023-06-29T08:00:24.065Z,2.55
2023-06-29T08:02:59.187Z,2.78
2023-06-29T08:08:12.156Z,2.58
2023-06-29T08:10:51.356Z,2.38
2023-06-29T08:13:26.016Z,2.63
2023-06-29T08:16:03.249Z,2.20
2023-06-29T08:18:38.907Z,2.28
2023-06-29T08:21:13.693Z,2.33
2023-06-29T08:23:50.581Z,3.00
2023-06-29T08:26:26.968Z,2.38
2023-06-29T08:29:02.061Z,2.63
2023-06-29T08:31:36.733Z,2.40
2023-06-29T08:34:10.626Z,2.30
2023-06-29T08:36:44.472Z,2.17
2023-06-29T08:39:17.998Z,2.35
2023-06-29T08:42:01.011Z,2.30
2023-06-29T08:44:36.857Z,2.47
2023-06-29T08:47:14.409Z,2.50
2023-06-29T08:49:55.964Z,2.88
2023-06-29T08:52:36.694Z,2.67
2023-06-29T08:55:11.421Z,2.72
2023-06-29T08:57:47.962Z,3.50
2023-06-29T09:00:28.007Z,2.95
2023-06-29T09:03:06.755Z,3.25
2023-06-29T09:05:40.892Z,3.00
2023-06-29T09:08:15.262Z,3.13
2023-06-29T09:10:49.329Z,3.55
2023-06-29T09:13:28.597Z,3.80
2023-06-29T09:16:03.266Z,3.03
2023-06-29T09:18:37.592Z,3.65
2023-06-29T09:21:18.642Z,3.10
2023-06-29T09:23:52.719Z,3.47
2023-06-29T09:26:30.327Z,4.00
2023-06-29T09:29:07.265Z,3.83
2023-06-29T09:31:41.452Z,3.67
2023-06-29T09:34:20.427Z,3.58
2023-06-29T09:36:55.347Z,3.45
2023-06-29T09:39:32.089Z,3.70
2023-06-29T09:42:08.032Z,3.55
2023-06-29T09:44:47.844Z,3.45
2023-06-29T09:49:59.451Z,3.30
2023-06-29T09:52:48.931Z,3.55
2023-06-29T09:55:34.316Z,3.35
2023-06-29T09:58:09.791Z,3.67
2023-06-29T10:00:49.186Z,3.45
2023-06-29T10:03:23.097Z,4.05
2023-06-29T10:06:08.926Z,3.60
2023-06-29T10:08:45.873Z,3.85
2023-06-29T10:11:22.186Z,3.50
2023-06-29T10:14:04.930Z,3.50
2023-06-29T10:16:47.636Z,3.70
2023-06-29T10:19:26.084Z,3.40
2023-06-29T10:22:08.752Z,3.65
2023-06-29T10:24:46.802Z,3.50
2023-06-29T10:27:23.034Z,4.47
2023-06-29T10:29:57.158Z,4.57
2023-06-29T10:32:34.841Z,4.93
2023-06-29T10:35:12.244Z,4.70
2023-06-29T10:37:50.432Z,4.32
2023-06-29T10:40:28.566Z,5.07
2023-06-29T10:43:02.282Z,6.22
2023-06-29T10:45:41.986Z,6.38
2023-06-29T10:48:38.329Z,5.65
2023-06-29T10:51:15.250Z,6.25
2023-06-29T10:53:53.163Z,6.70
2023-06-29T10:56:36.089Z,6.45
2023-06-29T10:59:11.768Z,6.40
2023-06-29T11:01:45.848Z,6.72
2023-06-29T11:04:21.712Z,6.95
2023-06-29T11:06:55.694Z,7.45
2023-06-29T11:09:29.664Z,7.18
2023-06-29T11:12:03.753Z,8.27
2023-06-29T11:14:40.794Z,7.60
2023-06-29T11:17:15.444Z,7.32
2023-06-29T11:19:51.408Z,6.80
2023-06-29T11:22:25.414Z,7.28
2023-06-29T11:25:01.696Z,6.47
2023-06-29T11:27:37.197Z,5.97
2023-06-29T11:30:12.913Z,6.07
2023-06-29T11:32:50.011Z,6.15
2023-06-29T11:35:26.119Z,6.15
2023-06-29T11:38:03.665Z,5.90
2023-06-29T11:40:38.762Z,6.07
2023-06-29T11:43:13.393Z,5.90
2023-06-29T11:45:47.482Z,6.18
2023-06-29T11:48:22.702Z,6.15
2023-06-29T11:51:02.608Z,5.88
2023-06-29T11:53:37.235Z,6.32
2023-06-29T11:56:27.328Z,6.15
2023-06-29T11:59:08.331Z,5.53
2023-06-29T12:01:42.740Z,5.40
2023-06-29T12:04:17.624Z,6.03
2023-06-29T12:07:01.133Z,6.30
2023-06-29T12:09:39.885Z,6.20
2023-06-29T12:12:13.447Z,7.53
2023-06-29T12:14:47.345Z,6.75
2023-06-29T12:20:09.636Z,6.50
2023-06-29T12:22:47.106Z,6.05
2023-06-29T12:25:22.743Z,7.07
2023-06-29T12:27:56.822Z,6.65
2023-06-29T12:30:31.077Z,7.63
2023-06-29T12:33:07.442Z,6.68
2023-06-29T12:35:45.644Z,7.20
2023-06-29T12:38:21.905Z,7.82
2023-06-29T12:40:58.295Z,7.68
2023-06-29T12:43:33.043Z,7.50
2023-06-29T12:46:13.013Z,8.40
2023-06-29T12:48:47.323Z,7.18
2023-06-29T12:51:21.461Z,8.35
2023-06-29T12:53:56.768Z,9.13
2023-06-29T12:56:44.735Z,8.27
2023-06-29T12:59:18.709Z,7.13
2023-06-29T13:01:52.856Z,8.43
2023-06-29T13:04:27.044Z,8.45
2023-06-29T13:07:01.514Z,8.27
2023-06-29T13:09:37.725Z,9.32
2023-06-29T13:12:13.453Z,9.32
2023-06-29T13:14:50.494Z,9.98
2023-06-29T13:17:24.401Z,9.18
2023-06-29T13:20:00.336Z,10.30
2023-06-29T13:22:35.680Z,10.27
2023-06-29T13:25:12.467Z,9.60
2023-06-29T13:27:47.017Z,9.02
2023-06-29T13:30:21.349Z,10.40
2023-06-29T13:32:54.918Z,9.73
2023-06-29T13:35:28.650Z,9.27
2023-06-29T13:38:03.100Z,9.95
2023-06-29T13:40:38.757Z,10.32
2023-06-29T13:43:12.570Z,9.45
2023-06-29T13:46:08.039Z,10.13
2023-06-29T13:48:42.148Z,10.60
2023-06-29T13:51:32.775Z,10.07
2023-06-29T13:54:18.689Z,10.98
2023-06-29T13:57:18.081Z,11.50
2023-06-29T13:59:52.068Z,12.20
2023-06-29T14:02:32.947Z,11.20
2023-06-29T14:05:08.443Z,11.95
2023-06-29T14:07:50.153Z,11.35
2023-06-29T14:10:28.808Z,11.32
2023-06-29T14:13:14.044Z,11.23
2023-06-29T14:15:48.475Z,12.52
2023-06-29T14:18:41.940Z,9.95
2023-06-29T14:21:19.409Z,12.18
2023-06-29T14:24:10.955Z,11.20
2023-06-29T14:27:44.916Z,10.32
2023-06-29T14:30:20.652Z,10.05
2023-06-29T14:32:56.015Z,10.15
2023-06-29T14:35:32.395Z,10.75
2023-06-29T14:38:13.502Z,10.90
2023-06-29T14:40:49.564Z,12.25
2023-06-29T14:43:26.704Z,11.85
2023-06-29T14:46:08.704Z,11.10
2023-06-29T14:48:43.031Z,12.00
2023-06-29T14:51:30.324Z,11.43
2023-06-29T14:54:11.267Z,11.43
2023-06-29T14:56:47.862Z,11.65
2023-06-29T14:59:23.116Z,10.52
2023-06-29T15:02:08.937Z,10.52
2023-06-29T15:04:53.702Z,9.68
2023-06-29T15:07:39.086Z,10.77
2023-06-29T15:10:15.345Z,10.27
2023-06-29T15:12:54.257Z,10.55
2023-06-29T15:15:29.921Z,10.27
2023-06-29T15:18:06.153Z,10.98
2023-06-29T15:20:40.446Z,11.48
2023-06-29T15:23:14.766Z,10.95
2023-06-29T15:25:49.952Z,10.30
2023-06-29T15:28:33.218Z,11.25
2023-06-29T15:31:10.752Z,10.32
2023-06-29T15:33:53.818Z,9.73
2023-06-29T15:36:29.144Z,9.98
2023-06-29T15:39:08.195Z,9.70
2023-06-29T15:41:50.804Z,9.50
2023-06-29T15:44:25.104Z,8.70
2023-06-29T15:47:01.005Z,8.20
2023-06-29T15:49:36.244Z,8.15
2023-06-29T15:52:11.033Z,7.85
2023-06-29T15:54:47.271Z,7.88
2023-06-29T15:57:20.712Z,8.57
2023-06-29T15:59:54.858Z,8.15
2023-06-29T16:02:28.997Z,7.90
2023-06-29T16:05:11.809Z,8.60
2023-06-29T16:07:45.651Z,8.77
2023-06-29T16:10:19.320Z,8.43
2023-06-29T16:12:53.295Z,9.07
2023-06-29T16:15:28.722Z,8.65
2023-06-29T16:18:05.219Z,8.65
2023-06-29T16:20:40.284Z,10.18
2023-06-29T16:23:14.240Z,9.88
2023-06-29T16:25:59.267Z,9.18
2023-06-29T16:28:40.264Z,10.27
2023-06-29T16:31:14.276Z,11.20
2023-06-29T16:33:50.362Z,11.05
2023-06-29T16:36:25.768Z,11.57
2023-06-29T16:38:59.654Z,10.48
2023-06-29T16:41:33.707Z,10.25
2023-06-29T16:44:11.458Z,10.70
2023-06-29T16:46:45.211Z,11.18
2023-06-29T16:49:19.250Z,9.98
2023-06-29T16:51:54.974Z,11.13
2023-06-29T16:54:29.051Z,10.77
2023-06-29T16:57:03.054Z,11.00
2023-06-29T16:59:37.576Z,10.80
2023-06-29T17:02:11.474Z,10.35
2023-06-29T17:04:45.233Z,10.43
2023-06-29T17:07:21.208Z,10.52
2023-06-29T17:09:55.429Z,10.80
2023-06-29T17:12:30.069Z,10.80
2023-06-29T17:15:05.314Z,9.85
2023-06-29T17:17:39.031Z,11.65
2023-06-29T17:20:16.303Z,10.80
2023-06-29T17:23:00.092Z,10.48
2023-06-29T17:25:33.994Z,10.30
2023-06-29T17:28:08.074Z,10.07
2023-06-29T17:30:43.225Z,10.20
2023-06-29T17:33:35.343Z,11.98
2023-06-29T17:36:19.917Z,10.82
2023-06-29T17:38:56.126Z,10.73
2023-06-29T17:41:30.315Z,9.57
2023-06-29T17:44:03.926Z,10.55
2023-06-29T17:46:39.789Z,11.48
2023-06-29T17:49:15.114Z,11.77
2023-06-29T17:51:48.680Z,11.52
2023-06-29T17:54:24.640Z,11.20
2023-06-29T17:56:58.419Z,11.77
2023-06-29T17:59:32.286Z,11.13
2023-06-29T18:02:07.112Z,12.20
2023-06-29T18:04:40.974Z,12.88
2023-06-29T18:07:17.882Z,11.77
2023-06-29T18:09:53.447Z,12.20
2023-06-29T18:12:27.867Z,11.70
2023-06-29T18:15:01.823Z,13.07
2023-06-29T18:17:36.710Z,13.70
2023-06-29T18:20:12.568Z,14.18
2023-06-29T18:22:46.316Z,14.77
2023-06-29T18:25:21.908Z,14.65
2023-06-29T18:27:55.685Z,13.25
2023-06-29T18:30:30.324Z,13.65
2023-06-29T18:33:04.468Z,14.80
2023-06-29T18:35:38.079Z,14.02
2023-06-29T18:38:11.918Z,13.88
2023-06-29T18:40:47.187Z,13.63
2023-06-29T18:43:21.256Z,13.68
2023-06-29T18:45:55.617Z,15.65
2023-06-29T18:48:29.625Z,13.98
2023-06-29T18:51:03.136Z,14.23
2023-06-29T18:53:38.706Z,13.23
2023-06-29T18:56:14.214Z,13.98
2023-06-29T18:58:49.021Z,13.80
2023-06-29T19:01:23.418Z,11.98
2023-06-29T19:03:57.333Z,13.40
2023-06-29T19:06:31.029Z,13.57
2023-06-29T19:09:05.257Z,13.93
2023-06-29T19:11:40.431Z,13.90
2023-06-29T19:14:15.896Z,12.82
2023-06-29T19:16:51.716Z,13.30
2023-06-29T19:19:26.444Z,13.25
2023-06-29T19:21:59.909Z,13.38
2023-06-29T19:24:34.151Z,13.35
2023-06-29T19:27:10.407Z,14.73
2023-06-29T19:29:44.159Z,14.93
2023-06-29T19:32:17.712Z,13.75
2023-06-29T19:34:52.188Z,13.95
2023-06-29T19:37:27.973Z,12.55
2023-06-29T19:40:03.344Z,14.10
2023-06-29T19:42:39.234Z,12.90
2023-06-29T19:45:13.802Z,14.52
2023-06-29T19:47:47.967Z,14.05
2023-06-29T19:50:22.322Z,13.30
2023-06-29T19:52:55.988Z,13.55
2023-06-29T19:55:33.600Z,14.00
2023-06-29T19:58:10.748Z,14.30
2023-06-29T20:00:44.631Z,14.75
2023-06-29T20:03:20.596Z,13.93
2023-06-29T20:05:54.898Z,14.60
2023-06-29T20:08:30.654Z,14.77
2023-06-29T20:11:04.270Z,13.93
2023-06-29T20:13:41.976Z,14.50
2023-06-29T20:16:16.085Z,13.40
2023-06-29T20:18:51.520Z,14.77
2023-06-29T20:21:25.245Z,15.82
2023-06-29T20:23:59.761Z,15.40
2023-06-29T20:26:35.409Z,14.95
2023-06-29T20:29:12.918Z,13.68
2023-06-29T20:31:48.654Z,15.00
2023-06-29T20:34:31.661Z,15.45
2023-06-29T20:37:08.997Z,15.60
2023-06-29T20:39:43.585Z,13.60
2023-06-29T20:42:19.226Z,13.30
2023-06-29T20:44:57.587Z,12.15
2023-06-29T20:47:31.536Z,11.38
2023-06-29T20:50:06.459Z,11.98
2023-06-29T20:52:41.837Z,11.02
2023-06-29T20:55:19.269Z,11.15
2023-06-29T20:57:53.528Z,10.50
2023-06-29T21:00:29.773Z,9.93
2023-06-29T21:03:04.976Z,10.70
2023-06-29T21:05:38.830Z,10.85
2023-06-29T21:08:12.717Z,8.98
2023-06-29T21:10:47.456Z,9.65
2023-06-29T21:13:22.710Z,8.48
2023-06-29T21:15:58.690Z,8.45
2023-06-29T21:18:33.797Z,9.65
2023-06-29T21:21:10.066Z,9.43
2023-06-29T21:23:44.515Z,9.50
2023-06-29T21:26:21.642Z,8.07
2023-06-29T21:29:00.025Z,8.57
2023-06-29T21:31:38.331Z,7.95
2023-06-29T21:34:16.142Z,8.65
2023-06-29T21:36:51.102Z,7.45
2023-06-29T21:39:26.359Z,7.82
2023-06-29T21:42:01.016Z,9.07
2023-06-29T21:44:35.293Z,8.32
2023-06-29T21:47:12.777Z,7.57
2023-06-29T21:49:47.169Z,6.65
2023-06-29T21:52:20.933Z,6.30
2023-06-29T21:54:55.031Z,6.65
2023-06-29T21:57:30.192Z,6.25
2023-06-29T22:00:08.189Z,6.30
2023-06-29T22:02:45.306Z,6.90
2023-06-29T22:05:19.371Z,7.20
2023-06-29T22:07:53.356Z,7.30
2023-06-29T22:10:27.818Z,7.07
2023-06-29T22:13:01.603Z,7.38
2023-06-29T22:15:38.278Z,6.80
2023-06-29T22:18:14.857Z,6.38
2023-06-29T22:20:51.981Z,7.03
2023-06-29T22:23:25.643Z,6.80
2023-06-29T22:25:59.980Z,7.85
2023-06-29T22:28:34.475Z,7.53
2023-06-29T22:31:08.359Z,6.72
2023-06-29T22:33:46.439Z,6.25
2023-06-29T22:36:21.355Z,5.43
2023-06-29T22:38:55.271Z,4.13
2023-06-29T22:41:30.468Z,3.70
2023-06-29T22:44:04.279Z,3.25
2023-06-29T22:46:38.676Z,2.55
2023-06-29T22:49:14.619Z,2.20
2023-06-29T22:51:48.561Z,2.40
2023-06-29T22:54:22.961Z,1.75
2023-06-29T22:56:57.565Z,1.58
2023-06-29T22:59:32.006Z,1.35
2023-06-29T23:02:07.861Z,1.10
2023-06-29T23:04:44.383Z,1.20
2023-06-29T23:07:19.680Z,1.08
2023-06-29T23:09:54.697Z,1.10
2023-06-29T23:12:28.520Z,1.13
2023-06-29T23:15:02.372Z,1.20
2023-06-29T23:17:36.645Z,0.90
2023-06-29T23:20:15.431Z,0.95
2023-06-29T23:22:49.610Z,1.08
2023-06-29T23:25:25.572Z,0.70
2023-06-29T23:27:59.874Z,1.05
2023-06-29T23:30:34.696Z,0.88
2023-06-29T23:33:10.655Z,1.00
2023-06-29T23:35:46.506Z,0.98
2023-06-29T23:38:20.882Z,0.82
2023-06-29T23:40:55.729Z,0.88
2023-06-29T23:43:29.775Z,0.85
2023-06-29T23:46:03.677Z,1.00
2023-06-29T23:48:39.200Z,0.90
2023-06-29T23:51:26.305Z,0.90
2023-06-29T23:54:00.246Z,0.70
2023-06-29T23:56:34.541Z,0.90
2023-06-29T23:59:10.299Z,0.90
